sensor_id;sensor_type;location;lat;lon;timestamp;P1;durP1;ratioP1;P2;durP2;ratioP2
44272;SDS011;29964;17.182;-96.766;2022-09-11T00:01:48;1.43;;;1.17;;
44272;SDS011;29964;17.182;-96.766;2022-09-11T00:04:15;1.60;;;1.03;;
44272;SDS011;29964;17.182;-96.766;2022-09-11T00:06:42;2.00;;;0.90;;
44272;SDS011;29964;17.182;-96.766;2022-09-11T00:09:09;1.47;;;0.90;;
44272;SDS011;29964;17.182;-96.766;2022-09-11T00:11:40;7.90;;;1.33;;
44272;SDS011;29964;17.182;-96.766;2022-09-11T00:14:13;0.87;;;0.70;;
44272;SDS011;29964;17.182;-96.766;2022-09-11T00:16:41;2.43;;;1.30;;
44272;SDS011;29964;17.182;-96.766;2022-09-11T00:19:13;0.93;;;0.80;;
44272;SDS011;29964;17.182;-96.766;2022-09-11T00:21:40;2.00;;;1.23;;
44272;SDS011;29964;17.182;-96.766;2022-09-11T00:24:07;0.93;;;0.70;;
44272;SDS011;29964;17.182;-96.766;2022-09-11T00:26:34;2.30;;;1.40;;
44272;SDS011;29964;17.182;-96.766;2022-09-11T00:29:01;1.10;;;0.80;;
44272;SDS011;29964;17.182;-96.766;2022-09-11T00:31:29;1.10;;;0.80;;
44272;SDS011;29964;17.182;-96.766;2022-09-11T00:33:56;1.63;;;0.70;;
44272;SDS011;29964;17.182;-96.766;2022-09-11T00:36:24;7.40;;;1.40;;
44272;SDS011;29964;17.182;-96.766;2022-09-11T00:38:52;2.33;;;1.17;;
44272;SDS011;29964;17.182;-96.766;2022-09-11T00:41:24;1.60;;;0.80;;
44272;SDS011;29964;17.182;-96.766;2022-09-11T00:43:55;0.47;;;0.47;;
44272;SDS011;29964;17.182;-96.766;2022-09-11T00:46:28;1.83;;;1.20;;
44272;SDS011;29964;17.182;-96.766;2022-09-11T00:48:58;3.25;;;1.00;;
44272;SDS011;29964;17.182;-96.766;2022-09-11T00:51:27;4.40;;;1.23;;
44272;SDS011;29964;17.182;-96.766;2022-09-11T00:53:55;1.27;;;1.00;;
44272;SDS011;29964;17.182;-96.766;2022-09-11T00:56:23;2.03;;;1.03;;
44272;SDS011;29964;17.182;-96.766;2022-09-11T00:58:53;7.53;;;1.03;;
44272;SDS011;29964;17.182;-96.766;2022-09-11T01:01:20;0.50;;;0.40;;
44272;SDS011;29964;17.182;-96.766;2022-09-11T01:03:47;0.47;;;0.47;;
44272;SDS011;29964;17.182;-96.766;2022-09-11T01:06:14;0.93;;;0.60;;
44272;SDS011;29964;17.182;-96.766;2022-09-11T01:08:41;3.03;;;0.70;;
44272;SDS011;29964;17.182;-96.766;2022-09-11T01:16:42;0.55;;;0.43;;
44272;SDS011;29964;17.182;-96.766;2022-09-11T01:19:34;1.37;;;0.77;;
44272;SDS011;29964;17.182;-96.766;2022-09-11T01:24:43;0.93;;;0.50;;
44272;SDS011;29964;17.182;-96.766;2022-09-11T01:29:54;1.27;;;0.83;;
44272;SDS011;29964;17.182;-96.766;2022-09-11T01:32:40;4.03;;;1.30;;
44272;SDS011;29964;17.182;-96.766;2022-09-11T01:40:04;0.83;;;0.63;;
44272;SDS011;29964;17.182;-96.766;2022-09-11T01:42:34;1.30;;;1.00;;
44272;SDS011;29964;17.182;-96.766;2022-09-11T01:45:04;0.80;;;0.70;;
44272;SDS011;29964;17.182;-96.766;2022-09-11T01:47:34;1.33;;;0.80;;
44272;SDS011;29964;17.182;-96.766;2022-09-11T01:50:03;1.77;;;1.30;;
44272;SDS011;29964;17.182;-96.766;2022-09-11T01:52:33;1.27;;;1.03;;
44272;SDS011;29964;17.182;-96.766;2022-09-11T01:55:12;3.53;;;1.60;;
44272;SDS011;29964;17.182;-96.766;2022-09-11T01:57:48;1.23;;;0.93;;
44272;SDS011;29964;17.182;-96.766;2022-09-11T02:00:17;1.00;;;0.80;;
44272;SDS011;29964;17.182;-96.766;2022-09-11T02:02:45;5.73;;;1.97;;
44272;SDS011;29964;17.182;-96.766;2022-09-11T02:05:15;3.43;;;2.43;;
44272;SDS011;29964;17.182;-96.766;2022-09-11T02:08:03;1.70;;;1.20;;
44272;SDS011;29964;17.182;-96.766;2022-09-11T02:10:37;0.73;;;0.67;;
44272;SDS011;29964;17.182;-96.766;2022-09-11T02:15:34;3.33;;;1.00;;
44272;SDS011;29964;17.182;-96.766;2022-09-11T02:18:10;4.10;;;1.00;;
44272;SDS011;29964;17.182;-96.766;2022-09-11T02:20:39;0.80;;;0.80;;
44272;SDS011;29964;17.182;-96.766;2022-09-11T02:23:09;1.90;;;1.33;;
44272;SDS011;29964;17.182;-96.766;2022-09-11T02:25:36;4.73;;;1.43;;
44272;SDS011;29964;17.182;-96.766;2022-09-11T02:28:04;2.37;;;1.30;;
44272;SDS011;29964;17.182;-96.766;2022-09-11T02:30:31;3.20;;;1.80;;
44272;SDS011;29964;17.182;-96.766;2022-09-11T02:32:58;1.80;;;1.17;;
44272;SDS011;29964;17.182;-96.766;2022-09-11T02:35:26;2.17;;;1.30;;
44272;SDS011;29964;17.182;-96.766;2022-09-11T02:38:04;2.10;;;1.53;;
44272;SDS011;29964;17.182;-96.766;2022-09-11T02:40:35;1.57;;;1.10;;
44272;SDS011;29964;17.182;-96.766;2022-09-11T02:48:59;3.53;;;1.67;;
44272;SDS011;29964;17.182;-96.766;2022-09-11T02:54:04;1.07;;;0.93;;
44272;SDS011;29964;17.182;-96.766;2022-09-11T02:56:51;2.37;;;1.20;;
44272;SDS011;29964;17.182;-96.766;2022-09-11T02:59:25;1.40;;;1.20;;
44272;SDS011;29964;17.182;-96.766;2022-09-11T03:01:54;2.83;;;1.63;;
44272;SDS011;29964;17.182;-96.766;2022-09-11T03:04:23;1.77;;;1.40;;
44272;SDS011;29964;17.182;-96.766;2022-09-11T03:06:50;2.47;;;1.70;;
44272;SDS011;29964;17.182;-96.766;2022-09-11T03:09:17;1.50;;;1.30;;
44272;SDS011;29964;17.182;-96.766;2022-09-11T03:11:44;1.37;;;0.97;;
44272;SDS011;29964;17.182;-96.766;2022-09-11T03:14:11;1.60;;;1.33;;
44272;SDS011;29964;17.182;-96.766;2022-09-11T03:16:38;1.57;;;1.13;;
44272;SDS011;29964;17.182;-96.766;2022-09-11T03:19:05;2.23;;;1.10;;
44272;SDS011;29964;17.182;-96.766;2022-09-11T03:21:33;2.47;;;1.00;;
44272;SDS011;29964;17.182;-96.766;2022-09-11T03:24:00;2.80;;;1.50;;
44272;SDS011;29964;17.182;-96.766;2022-09-11T03:26:28;2.37;;;1.73;;
44272;SDS011;29964;17.182;-96.766;2022-09-11T03:28:55;1.80;;;1.37;;
44272;SDS011;29964;17.182;-96.766;2022-09-11T03:31:22;2.13;;;1.47;;
44272;SDS011;29964;17.182;-96.766;2022-09-11T03:33:49;1.63;;;1.33;;
44272;SDS011;29964;17.182;-96.766;2022-09-11T03:36:16;3.70;;;2.30;;
44272;SDS011;29964;17.182;-96.766;2022-09-11T03:38:44;3.33;;;2.03;;
44272;SDS011;29964;17.182;-96.766;2022-09-11T03:41:11;8.27;;;1.33;;
44272;SDS011;29964;17.182;-96.766;2022-09-11T03:43:37;3.43;;;1.67;;
44272;SDS011;29964;17.182;-96.766;2022-09-11T03:46:04;1.97;;;1.60;;
44272;SDS011;29964;17.182;-96.766;2022-09-11T03:48:31;2.83;;;1.80;;
44272;SDS011;29964;17.182;-96.766;2022-09-11T03:51:01;2.00;;;1.27;;
44272;SDS011;29964;17.182;-96.766;2022-09-11T03:53:30;1.77;;;1.43;;
44272;SDS011;29964;17.182;-96.766;2022-09-11T03:55:59;1.67;;;1.37;;
44272;SDS011;29964;17.182;-96.766;2022-09-11T03:58:28;1.33;;;1.10;;
44272;SDS011;29964;17.182;-96.766;2022-09-11T04:00:55;1.40;;;1.30;;
44272;SDS011;29964;17.182;-96.766;2022-09-11T04:03:22;2.60;;;1.90;;
44272;SDS011;29964;17.182;-96.766;2022-09-11T04:05:58;2.63;;;2.03;;
44272;SDS011;29964;17.182;-96.766;2022-09-11T04:08:25;2.20;;;1.63;;
44272;SDS011;29964;17.182;-96.766;2022-09-11T04:10:56;2.23;;;1.90;;
44272;SDS011;29964;17.182;-96.766;2022-09-11T04:13:27;3.23;;;2.17;;
44272;SDS011;29964;17.182;-96.766;2022-09-11T04:15:57;3.03;;;1.90;;
44272;SDS011;29964;17.182;-96.766;2022-09-11T04:18:24;1.77;;;1.30;;
44272;SDS011;29964;17.182;-96.766;2022-09-11T04:20:51;2.40;;;1.37;;
44272;SDS011;29964;17.182;-96.766;2022-09-11T04:23:17;1.87;;;1.10;;
44272;SDS011;29964;17.182;-96.766;2022-09-11T04:25:44;2.00;;;1.27;;
44272;SDS011;29964;17.182;-96.766;2022-09-11T04:28:12;1.87;;;1.47;;
44272;SDS011;29964;17.182;-96.766;2022-09-11T04:30:38;2.87;;;1.90;;
44272;SDS011;29964;17.182;-96.766;2022-09-11T04:33:06;3.93;;;1.70;;
44272;SDS011;29964;17.182;-96.766;2022-09-11T04:35:39;1.33;;;0.93;;
44272;SDS011;29964;17.182;-96.766;2022-09-11T04:38:06;2.60;;;2.03;;
44272;SDS011;29964;17.182;-96.766;2022-09-11T04:40:33;1.60;;;1.23;;
44272;SDS011;29964;17.182;-96.766;2022-09-11T04:43:00;1.50;;;1.30;;
44272;SDS011;29964;17.182;-96.766;2022-09-11T04:45:28;2.20;;;1.50;;
44272;SDS011;29964;17.182;-96.766;2022-09-11T04:47:58;5.83;;;1.73;;
44272;SDS011;29964;17.182;-96.766;2022-09-11T04:50:25;2.80;;;1.60;;
44272;SDS011;29964;17.182;-96.766;2022-09-11T04:52:53;2.20;;;1.70;;
44272;SDS011;29964;17.182;-96.766;2022-09-11T04:55:20;1.53;;;1.43;;
44272;SDS011;29964;17.182;-96.766;2022-09-11T04:57:47;3.27;;;1.47;;
44272;SDS011;29964;17.182;-96.766;2022-09-11T05:00:14;1.73;;;1.53;;
44272;SDS011;29964;17.182;-96.766;2022-09-11T05:02:40;3.60;;;2.17;;
44272;SDS011;29964;17.182;-96.766;2022-09-11T05:05:07;2.70;;;1.67;;
44272;SDS011;29964;17.182;-96.766;2022-09-11T05:07:35;1.73;;;1.37;;
44272;SDS011;29964;17.182;-96.766;2022-09-11T05:10:02;2.60;;;1.50;;
44272;SDS011;29964;17.182;-96.766;2022-09-11T05:12:30;3.00;;;1.83;;
44272;SDS011;29964;17.182;-96.766;2022-09-11T05:14:57;1.27;;;0.97;;
44272;SDS011;29964;17.182;-96.766;2022-09-11T05:17:23;1.60;;;1.50;;
44272;SDS011;29964;17.182;-96.766;2022-09-11T05:19:50;3.63;;;2.00;;
44272;SDS011;29964;17.182;-96.766;2022-09-11T05:22:16;5.70;;;2.00;;
44272;SDS011;29964;17.182;-96.766;2022-09-11T05:24:43;3.00;;;2.37;;
44272;SDS011;29964;17.182;-96.766;2022-09-11T05:27:10;2.20;;;1.93;;
44272;SDS011;29964;17.182;-96.766;2022-09-11T05:29:38;2.23;;;1.70;;
44272;SDS011;29964;17.182;-96.766;2022-09-11T05:32:06;6.27;;;2.17;;
44272;SDS011;29964;17.182;-96.766;2022-09-11T05:34:32;1.60;;;1.43;;
44272;SDS011;29964;17.182;-96.766;2022-09-11T05:36:59;1.50;;;1.40;;
44272;SDS011;29964;17.182;-96.766;2022-09-11T05:39:26;1.83;;;1.63;;
44272;SDS011;29964;17.182;-96.766;2022-09-11T05:41:53;2.50;;;1.70;;
44272;SDS011;29964;17.182;-96.766;2022-09-11T05:44:20;1.90;;;1.63;;
44272;SDS011;29964;17.182;-96.766;2022-09-11T05:46:46;3.60;;;2.57;;
44272;SDS011;29964;17.182;-96.766;2022-09-11T05:49:13;1.60;;;1.43;;
44272;SDS011;29964;17.182;-96.766;2022-09-11T05:51:40;4.50;;;2.30;;
44272;SDS011;29964;17.182;-96.766;2022-09-11T05:54:06;18.77;;;2.47;;
44272;SDS011;29964;17.182;-96.766;2022-09-11T05:56:33;1.73;;;1.50;;
44272;SDS011;29964;17.182;-96.766;2022-09-11T05:59:01;2.80;;;2.10;;
44272;SDS011;29964;17.182;-96.766;2022-09-11T06:01:28;3.23;;;1.90;;
44272;SDS011;29964;17.182;-96.766;2022-09-11T06:03:55;1.47;;;1.33;;
44272;SDS011;29964;17.182;-96.766;2022-09-11T06:06:22;2.10;;;1.73;;
44272;SDS011;29964;17.182;-96.766;2022-09-11T06:08:49;2.20;;;1.87;;
44272;SDS011;29964;17.182;-96.766;2022-09-11T06:11:17;2.30;;;2.00;;
44272;SDS011;29964;17.182;-96.766;2022-09-11T06:13:44;3.70;;;2.13;;
44272;SDS011;29964;17.182;-96.766;2022-09-11T06:16:13;4.07;;;2.57;;
44272;SDS011;29964;17.182;-96.766;2022-09-11T06:18:39;3.60;;;2.63;;
44272;SDS011;29964;17.182;-96.766;2022-09-11T06:21:07;2.97;;;2.27;;
44272;SDS011;29964;17.182;-96.766;2022-09-11T06:23:35;2.17;;;1.53;;
44272;SDS011;29964;17.182;-96.766;2022-09-11T06:26:05;2.67;;;2.33;;
44272;SDS011;29964;17.182;-96.766;2022-09-11T06:28:33;1.80;;;1.63;;
44272;SDS011;29964;17.182;-96.766;2022-09-11T06:31:01;2.10;;;1.60;;
44272;SDS011;29964;17.182;-96.766;2022-09-11T06:33:31;3.10;;;2.40;;
44272;SDS011;29964;17.182;-96.766;2022-09-11T06:35:59;2.30;;;2.10;;
44272;SDS011;29964;17.182;-96.766;2022-09-11T06:38:26;2.37;;;2.00;;
44272;SDS011;29964;17.182;-96.766;2022-09-11T06:40:53;2.80;;;1.87;;
44272;SDS011;29964;17.182;-96.766;2022-09-11T06:43:20;1.73;;;1.50;;
44272;SDS011;29964;17.182;-96.766;2022-09-11T06:45:46;3.57;;;2.23;;
44272;SDS011;29964;17.182;-96.766;2022-09-11T06:48:14;5.63;;;1.87;;
44272;SDS011;29964;17.182;-96.766;2022-09-11T06:50:41;3.57;;;2.60;;
44272;SDS011;29964;17.182;-96.766;2022-09-11T06:53:08;1.60;;;1.27;;
44272;SDS011;29964;17.182;-96.766;2022-09-11T06:55:35;3.20;;;2.03;;
44272;SDS011;29964;17.182;-96.766;2022-09-11T06:58:01;1.67;;;1.50;;
44272;SDS011;29964;17.182;-96.766;2022-09-11T07:00:28;4.07;;;2.50;;
44272;SDS011;29964;17.182;-96.766;2022-09-11T07:02:55;3.40;;;1.93;;
44272;SDS011;29964;17.182;-96.766;2022-09-11T07:05:22;2.93;;;2.20;;
44272;SDS011;29964;17.182;-96.766;2022-09-11T07:07:53;25.77;;;2.73;;
44272;SDS011;29964;17.182;-96.766;2022-09-11T07:10:23;2.30;;;1.80;;
44272;SDS011;29964;17.182;-96.766;2022-09-11T07:12:53;3.17;;;2.33;;
44272;SDS011;29964;17.182;-96.766;2022-09-11T07:15:20;2.77;;;2.20;;
44272;SDS011;29964;17.182;-96.766;2022-09-11T07:17:47;1.80;;;1.60;;
44272;SDS011;29964;17.182;-96.766;2022-09-11T07:20:13;5.90;;;2.33;;
44272;SDS011;29964;17.182;-96.766;2022-09-11T07:22:41;1.93;;;1.73;;
44272;SDS011;29964;17.182;-96.766;2022-09-11T07:25:09;2.47;;;2.00;;
44272;SDS011;29964;17.182;-96.766;2022-09-11T07:27:36;1.83;;;1.60;;
44272;SDS011;29964;17.182;-96.766;2022-09-11T07:30:03;5.10;;;2.60;;
44272;SDS011;29964;17.182;-96.766;2022-09-11T07:32:29;3.67;;;2.60;;
44272;SDS011;29964;17.182;-96.766;2022-09-11T07:34:57;1.87;;;1.50;;
44272;SDS011;29964;17.182;-96.766;2022-09-11T07:37:26;3.77;;;2.70;;
44272;SDS011;29964;17.182;-96.766;2022-09-11T07:39:53;4.03;;;2.33;;
44272;SDS011;29964;17.182;-96.766;2022-09-11T07:42:19;3.17;;;2.40;;
44272;SDS011;29964;17.182;-96.766;2022-09-11T07:44:46;3.03;;;2.40;;
44272;SDS011;29964;17.182;-96.766;2022-09-11T07:47:15;4.33;;;3.13;;
44272;SDS011;29964;17.182;-96.766;2022-09-11T07:49:41;3.67;;;2.30;;
44272;SDS011;29964;17.182;-96.766;2022-09-11T07:52:13;2.90;;;2.07;;
44272;SDS011;29964;17.182;-96.766;2022-09-11T07:54:40;4.70;;;3.63;;
44272;SDS011;29964;17.182;-96.766;2022-09-11T07:57:07;2.77;;;1.77;;
44272;SDS011;29964;17.182;-96.766;2022-09-11T07:59:33;2.47;;;2.03;;
44272;SDS011;29964;17.182;-96.766;2022-09-11T08:02:00;2.03;;;1.80;;
44272;SDS011;29964;17.182;-96.766;2022-09-11T08:04:27;6.70;;;2.87;;
44272;SDS011;29964;17.182;-96.766;2022-09-11T08:06:53;2.30;;;1.70;;
44272;SDS011;29964;17.182;-96.766;2022-09-11T08:09:20;1.97;;;1.40;;
44272;SDS011;29964;17.182;-96.766;2022-09-11T08:11:47;1.50;;;1.37;;
44272;SDS011;29964;17.182;-96.766;2022-09-11T08:14:14;2.17;;;1.10;;
44272;SDS011;29964;17.182;-96.766;2022-09-11T08:16:42;1.50;;;1.10;;
44272;SDS011;29964;17.182;-96.766;2022-09-11T08:19:14;1.17;;;0.90;;
44272;SDS011;29964;17.182;-96.766;2022-09-11T08:21:42;1.13;;;0.93;;
44272;SDS011;29964;17.182;-96.766;2022-09-11T08:24:11;1.33;;;1.00;;
44272;SDS011;29964;17.182;-96.766;2022-09-11T08:26:37;1.47;;;1.00;;
44272;SDS011;29964;17.182;-96.766;2022-09-11T08:29:04;4.40;;;1.10;;
44272;SDS011;29964;17.182;-96.766;2022-09-11T08:31:31;2.13;;;1.40;;
44272;SDS011;29964;17.182;-96.766;2022-09-11T08:33:59;0.83;;;0.70;;
44272;SDS011;29964;17.182;-96.766;2022-09-11T08:36:26;2.00;;;1.13;;
44272;SDS011;29964;17.182;-96.766;2022-09-11T08:38:54;0.90;;;0.80;;
44272;SDS011;29964;17.182;-96.766;2022-09-11T08:46:37;1.73;;;0.90;;
44272;SDS011;29964;17.182;-96.766;2022-09-11T08:51:33;1.73;;;1.20;;
44272;SDS011;29964;17.182;-96.766;2022-09-11T08:54:00;1.50;;;0.97;;
44272;SDS011;29964;17.182;-96.766;2022-09-11T08:56:28;1.43;;;1.10;;
44272;SDS011;29964;17.182;-96.766;2022-09-11T08:59:14;1.00;;;0.83;;
44272;SDS011;29964;17.182;-96.766;2022-09-11T09:01:50;0.87;;;0.73;;
44272;SDS011;29964;17.182;-96.766;2022-09-11T09:07:02;0.73;;;0.70;;
44272;SDS011;29964;17.182;-96.766;2022-09-11T09:12:17;1.13;;;0.87;;
44272;SDS011;29964;17.182;-96.766;2022-09-11T09:17:38;0.95;;;0.82;;
44272;SDS011;29964;17.182;-96.766;2022-09-11T09:20:11;5.80;;;1.10;;
44272;SDS011;29964;17.182;-96.766;2022-09-11T09:22:44;2.30;;;1.10;;
44272;SDS011;29964;17.182;-96.766;2022-09-11T09:25:13;3.20;;;0.93;;
44272;SDS011;29964;17.182;-96.766;2022-09-11T09:30:22;5.27;;;1.07;;
44272;SDS011;29964;17.182;-96.766;2022-09-11T09:32:53;1.70;;;1.20;;
44272;SDS011;29964;17.182;-96.766;2022-09-11T09:35:22;2.07;;;1.27;;
44272;SDS011;29964;17.182;-96.766;2022-09-11T09:37:51;0.80;;;0.80;;
44272;SDS011;29964;17.182;-96.766;2022-09-11T09:40:18;2.97;;;0.93;;
44272;SDS011;29964;17.182;-96.766;2022-09-11T09:47:57;0.77;;;0.70;;
44272;SDS011;29964;17.182;-96.766;2022-09-11T09:50:29;0.50;;;0.50;;
44272;SDS011;29964;17.182;-96.766;2022-09-11T09:53:08;0.70;;;0.50;;
44272;SDS011;29964;17.182;-96.766;2022-09-11T09:55:37;3.10;;;0.80;;
44272;SDS011;29964;17.182;-96.766;2022-09-11T09:58:04;3.40;;;1.03;;
44272;SDS011;29964;17.182;-96.766;2022-09-11T10:00:34;1.47;;;1.17;;
44272;SDS011;29964;17.182;-96.766;2022-09-11T10:05:58;0.68;;;0.60;;
44272;SDS011;29964;17.182;-96.766;2022-09-11T10:10:55;23.07;;;1.50;;
44272;SDS011;29964;17.182;-96.766;2022-09-11T10:13:23;4.13;;;2.50;;
44272;SDS011;29964;17.182;-96.766;2022-09-11T10:15:51;2.07;;;1.80;;
44272;SDS011;29964;17.182;-96.766;2022-09-11T10:20:48;1.07;;;0.97;;
44272;SDS011;29964;17.182;-96.766;2022-09-11T10:23:26;1.33;;;1.17;;
44272;SDS011;29964;17.182;-96.766;2022-09-11T10:25:53;1.77;;;1.17;;
44272;SDS011;29964;17.182;-96.766;2022-09-11T10:28:24;2.67;;;1.03;;
44272;SDS011;29964;17.182;-96.766;2022-09-11T10:30:59;8.43;;;0.90;;
44272;SDS011;29964;17.182;-96.766;2022-09-11T10:33:30;2.35;;;0.75;;
44272;SDS011;29964;17.182;-96.766;2022-09-11T10:35:58;2.43;;;0.80;;
44272;SDS011;29964;17.182;-96.766;2022-09-11T10:38:30;0.47;;;0.47;;
44272;SDS011;29964;17.182;-96.766;2022-09-11T10:41:07;0.30;;;0.30;;
44272;SDS011;29964;17.182;-96.766;2022-09-11T10:48:54;1.03;;;0.53;;
44272;SDS011;29964;17.182;-96.766;2022-09-11T10:51:22;1.17;;;1.03;;
44272;SDS011;29964;17.182;-96.766;2022-09-11T10:53:52;1.70;;;0.83;;
44272;SDS011;29964;17.182;-96.766;2022-09-11T10:56:22;1.37;;;1.03;;
44272;SDS011;29964;17.182;-96.766;2022-09-11T10:58:50;0.60;;;0.60;;
44272;SDS011;29964;17.182;-96.766;2022-09-11T11:01:18;0.87;;;0.60;;
44272;SDS011;29964;17.182;-96.766;2022-09-11T11:03:44;2.80;;;1.50;;
44272;SDS011;29964;17.182;-96.766;2022-09-11T11:06:35;5.70;;;1.00;;
44272;SDS011;29964;17.182;-96.766;2022-09-11T11:11:34;0.80;;;0.73;;
44272;SDS011;29964;17.182;-96.766;2022-09-11T11:16:52;1.07;;;0.87;;
44272;SDS011;29964;17.182;-96.766;2022-09-11T11:22:11;1.60;;;1.20;;
44272;SDS011;29964;17.182;-96.766;2022-09-11T11:37:35;1.20;;;0.70;;
44272;SDS011;29964;17.182;-96.766;2022-09-11T11:40:17;4.73;;;1.20;;
44272;SDS011;29964;17.182;-96.766;2022-09-11T11:42:51;1.17;;;0.63;;
44272;SDS011;29964;17.182;-96.766;2022-09-11T11:45:21;0.73;;;0.60;;
44272;SDS011;29964;17.182;-96.766;2022-09-11T11:47:48;5.60;;;1.33;;
44272;SDS011;29964;17.182;-96.766;2022-09-11T11:55:49;3.50;;;1.50;;
44272;SDS011;29964;17.182;-96.766;2022-09-11T12:00:54;3.43;;;1.57;;
44272;SDS011;29964;17.182;-96.766;2022-09-11T12:03:24;24.93;;;1.07;;
44272;SDS011;29964;17.182;-96.766;2022-09-11T12:05:53;1.63;;;1.10;;
44272;SDS011;29964;17.182;-96.766;2022-09-11T12:08:20;0.70;;;0.60;;
44272;SDS011;29964;17.182;-96.766;2022-09-11T12:11:01;1.13;;;1.03;;
44272;SDS011;29964;17.182;-96.766;2022-09-11T12:13:34;0.70;;;0.70;;
44272;SDS011;29964;17.182;-96.766;2022-09-11T12:18:31;1.80;;;0.87;;
44272;SDS011;29964;17.182;-96.766;2022-09-11T12:26:27;1.33;;;0.90;;
44272;SDS011;29964;17.182;-96.766;2022-09-11T12:34:23;0.97;;;0.77;;
44272;SDS011;29964;17.182;-96.766;2022-09-11T12:36:51;14.40;;;1.77;;
44272;SDS011;29964;17.182;-96.766;2022-09-11T12:41:50;0.70;;;0.70;;
44272;SDS011;29964;17.182;-96.766;2022-09-11T12:47:11;2.43;;;1.20;;
44272;SDS011;29964;17.182;-96.766;2022-09-11T12:49:41;0.73;;;0.60;;
44272;SDS011;29964;17.182;-96.766;2022-09-11T12:52:22;3.22;;;1.58;;
44272;SDS011;29964;17.182;-96.766;2022-09-11T12:54:51;2.67;;;1.60;;
44272;SDS011;29964;17.182;-96.766;2022-09-11T12:57:24;2.70;;;1.60;;
44272;SDS011;29964;17.182;-96.766;2022-09-11T12:59:54;2.20;;;1.02;;
44272;SDS011;29964;17.182;-96.766;2022-09-11T13:02:36;2.10;;;1.03;;
44272;SDS011;29964;17.182;-96.766;2022-09-11T13:05:05;3.03;;;1.40;;
44272;SDS011;29964;17.182;-96.766;2022-09-11T13:07:41;2.70;;;1.53;;
44272;SDS011;29964;17.182;-96.766;2022-09-11T13:10:21;6.47;;;1.60;;
44272;SDS011;29964;17.182;-96.766;2022-09-11T13:12:51;4.30;;;1.23;;
44272;SDS011;29964;17.182;-96.766;2022-09-11T13:15:29;1.87;;;1.47;;
44272;SDS011;29964;17.182;-96.766;2022-09-11T13:17:56;2.97;;;2.17;;
44272;SDS011;29964;17.182;-96.766;2022-09-11T13:20:23;1.07;;;0.97;;
44272;SDS011;29964;17.182;-96.766;2022-09-11T13:22:50;2.63;;;1.23;;
44272;SDS011;29964;17.182;-96.766;2022-09-11T13:27:47;3.23;;;1.37;;
44272;SDS011;29964;17.182;-96.766;2022-09-11T13:30:16;1.17;;;1.03;;
44272;SDS011;29964;17.182;-96.766;2022-09-11T13:32:44;2.00;;;1.40;;
44272;SDS011;29964;17.182;-96.766;2022-09-11T13:35:30;2.37;;;1.67;;
44272;SDS011;29964;17.182;-96.766;2022-09-11T13:38:01;2.92;;;2.30;;
44272;SDS011;29964;17.182;-96.766;2022-09-11T13:40:37;4.53;;;2.57;;
44272;SDS011;29964;17.182;-96.766;2022-09-11T13:43:06;1.67;;;1.40;;
44272;SDS011;29964;17.182;-96.766;2022-09-11T13:45:35;11.23;;;2.50;;
44272;SDS011;29964;17.182;-96.766;2022-09-11T13:48:10;4.70;;;1.77;;
44272;SDS011;29964;17.182;-96.766;2022-09-11T13:50:37;1.63;;;1.27;;
44272;SDS011;29964;17.182;-96.766;2022-09-11T13:53:04;2.60;;;1.60;;
44272;SDS011;29964;17.182;-96.766;2022-09-11T13:55:30;1.03;;;0.97;;
44272;SDS011;29964;17.182;-96.766;2022-09-11T13:57:58;3.13;;;1.87;;
44272;SDS011;29964;17.182;-96.766;2022-09-11T14:00:35;2.57;;;1.97;;
44272;SDS011;29964;17.182;-96.766;2022-09-11T14:03:02;3.37;;;2.03;;
44272;SDS011;29964;17.182;-96.766;2022-09-11T14:05:31;2.07;;;1.63;;
44272;SDS011;29964;17.182;-96.766;2022-09-11T14:08:03;2.20;;;1.37;;
44272;SDS011;29964;17.182;-96.766;2022-09-11T14:15:54;1.45;;;1.20;;
44272;SDS011;29964;17.182;-96.766;2022-09-11T14:18:27;2.80;;;1.47;;
44272;SDS011;29964;17.182;-96.766;2022-09-11T14:20:55;2.30;;;1.47;;
44272;SDS011;29964;17.182;-96.766;2022-09-11T14:23:24;1.63;;;1.30;;
44272;SDS011;29964;17.182;-96.766;2022-09-11T14:28:40;0.70;;;0.60;;
44272;SDS011;29964;17.182;-96.766;2022-09-11T14:31:08;1.55;;;1.15;;
44272;SDS011;29964;17.182;-96.766;2022-09-11T14:33:35;1.03;;;0.80;;
44272;SDS011;29964;17.182;-96.766;2022-09-11T14:36:15;1.63;;;0.80;;
44272;SDS011;29964;17.182;-96.766;2022-09-11T14:38:43;1.60;;;1.10;;
44272;SDS011;29964;17.182;-96.766;2022-09-11T14:41:11;0.53;;;0.53;;
44272;SDS011;29964;17.182;-96.766;2022-09-11T14:43:38;4.13;;;1.17;;
44272;SDS011;29964;17.182;-96.766;2022-09-11T14:46:05;0.97;;;0.77;;
44272;SDS011;29964;17.182;-96.766;2022-09-11T14:48:32;1.23;;;0.97;;
44272;SDS011;29964;17.182;-96.766;2022-09-11T14:51:00;15.17;;;1.30;;
44272;SDS011;29964;17.182;-96.766;2022-09-11T14:53:30;2.20;;;1.23;;
44272;SDS011;29964;17.182;-96.766;2022-09-11T14:55:58;3.20;;;1.10;;
44272;SDS011;29964;17.182;-96.766;2022-09-11T14:58:25;0.87;;;0.80;;
44272;SDS011;29964;17.182;-96.766;2022-09-11T15:00:53;1.33;;;0.93;;
44272;SDS011;29964;17.182;-96.766;2022-09-11T15:03:20;1.93;;;1.27;;
44272;SDS011;29964;17.182;-96.766;2022-09-11T15:05:55;1.83;;;1.20;;
44272;SDS011;29964;17.182;-96.766;2022-09-11T15:08:22;1.37;;;1.03;;
44272;SDS011;29964;17.182;-96.766;2022-09-11T15:10:49;1.37;;;1.27;;
44272;SDS011;29964;17.182;-96.766;2022-09-11T15:13:18;1.73;;;1.13;;
44272;SDS011;29964;17.182;-96.766;2022-09-11T15:15:45;2.83;;;1.53;;
44272;SDS011;29964;17.182;-96.766;2022-09-11T15:18:12;3.03;;;1.50;;
44272;SDS011;29964;17.182;-96.766;2022-09-11T15:20:38;2.40;;;1.27;;
44272;SDS011;29964;17.182;-96.766;2022-09-11T15:23:05;4.10;;;1.73;;
44272;SDS011;29964;17.182;-96.766;2022-09-11T15:25:32;1.27;;;1.10;;
44272;SDS011;29964;17.182;-96.766;2022-09-11T15:27:59;6.57;;;1.80;;
44272;SDS011;29964;17.182;-96.766;2022-09-11T15:30:26;5.27;;;1.57;;
44272;SDS011;29964;17.182;-96.766;2022-09-11T15:32:53;1.70;;;1.30;;
44272;SDS011;29964;17.182;-96.766;2022-09-11T15:35:20;2.00;;;1.43;;
44272;SDS011;29964;17.182;-96.766;2022-09-11T15:37:47;2.23;;;1.23;;
44272;SDS011;29964;17.182;-96.766;2022-09-11T15:40:14;4.40;;;1.97;;
44272;SDS011;29964;17.182;-96.766;2022-09-11T15:42:41;2.00;;;1.67;;
44272;SDS011;29964;17.182;-96.766;2022-09-11T15:45:08;2.13;;;1.50;;
44272;SDS011;29964;17.182;-96.766;2022-09-11T15:47:37;1.87;;;1.27;;
44272;SDS011;29964;17.182;-96.766;2022-09-11T15:50:04;0.87;;;0.83;;
44272;SDS011;29964;17.182;-96.766;2022-09-11T15:52:32;1.60;;;1.30;;
44272;SDS011;29964;17.182;-96.766;2022-09-11T15:54:59;2.40;;;1.63;;
44272;SDS011;29964;17.182;-96.766;2022-09-11T15:57:27;2.00;;;1.77;;
44272;SDS011;29964;17.182;-96.766;2022-09-11T15:59:55;3.23;;;1.67;;
44272;SDS011;29964;17.182;-96.766;2022-09-11T16:02:22;2.27;;;1.23;;
44272;SDS011;29964;17.182;-96.766;2022-09-11T16:04:48;1.83;;;1.43;;
44272;SDS011;29964;17.182;-96.766;2022-09-11T16:07:15;1.93;;;1.20;;
44272;SDS011;29964;17.182;-96.766;2022-09-11T16:09:42;2.90;;;1.70;;
44272;SDS011;29964;17.182;-96.766;2022-09-11T16:12:09;1.40;;;1.30;;
44272;SDS011;29964;17.182;-96.766;2022-09-11T16:14:38;3.00;;;1.53;;
44272;SDS011;29964;17.182;-96.766;2022-09-11T16:17:05;1.80;;;1.37;;
44272;SDS011;29964;17.182;-96.766;2022-09-11T16:19:32;1.47;;;1.00;;
44272;SDS011;29964;17.182;-96.766;2022-09-11T16:21:59;1.07;;;0.93;;
44272;SDS011;29964;17.182;-96.766;2022-09-11T16:24:27;1.97;;;1.20;;
44272;SDS011;29964;17.182;-96.766;2022-09-11T16:26:54;1.57;;;0.87;;
44272;SDS011;29964;17.182;-96.766;2022-09-11T16:29:22;1.40;;;1.10;;
44272;SDS011;29964;17.182;-96.766;2022-09-11T16:31:52;2.00;;;1.50;;
44272;SDS011;29964;17.182;-96.766;2022-09-11T16:34:20;2.07;;;1.40;;